Time;durP1;ratioP1;P1;durP2;ratioP2;P2;SDS_P1;SDS_P2;PMS_P1;PMS_P2;Temp;Humidity;BMP_temperature;BMP_pressure;BME280_temperature;BME280_humidity;BME280_pressure;Samples;Min_cycle;Max_cycle;Signal;HPM_P1;HPM_P2
2023/05/17 00:00:42;;;;;;;6.38;2.13;;;;;;;9.83;79.45;101851.50;4983857;28;20514;-63
2023/05/17 00:03:08;;;;;;;7.97;2.10;;;;;;;9.78;80.57;101848.03;4981133;28;20117;-63
2023/05/17 00:05:33;;;;;;;5.28;2.10;;;;;;;9.71;80.77;101850.50;4981313;28;20042;-62
2023/05/17 00:07:58;;;;;;;7.20;2.20;;;;;;;9.68;81.60;101852.19;4985867;28;20034;-63
2023/05/17 00:10:24;;;;;;;8.88;2.25;;;;;;;9.63;81.41;101851.28;4979474;28;20030;-62
2023/05/17 00:12:49;;;;;;;5.47;2.28;;;;;;;9.56;81.73;101852.00;4980684;28;20034;-63
2023/05/17 00:15:15;;;;;;;5.03;1.60;;;;;;;9.50;81.25;101857.09;4983650;28;20138;-62
2023/05/17 00:17:41;;;;;;;6.70;1.92;;;;;;;9.45;82.13;101857.88;4983364;28;20419;-63
2023/05/17 00:20:07;;;;;;;7.95;1.95;;;;;;;9.39;82.41;101858.66;4977298;28;20030;-62
2023/05/17 00:22:32;;;;;;;8.07;1.85;;;;;;;9.32;82.56;101850.78;4980279;28;20046;-62
2023/05/17 00:24:58;;;;;;;7.60;2.10;;;;;;;9.26;82.96;101850.75;4982608;28;20141;-62
2023/05/17 00:27:23;;;;;;;5.00;1.95;;;;;;;9.19;83.62;101851.47;4979567;28;20145;-62
2023/05/17 00:29:49;;;;;;;3.63;1.58;;;;;;;9.11;84.49;101859.97;4981014;28;20130;-61
2023/05/17 00:32:14;;;;;;;4.78;1.75;;;;;;;9.06;84.42;101853.00;4982164;28;20120;-62
2023/05/17 00:34:40;;;;;;;6.40;1.90;;;;;;;9.03;84.04;101860.69;4985095;28;20027;-61
2023/05/17 00:37:05;;;;;;;6.90;2.20;;;;;;;9.04;84.74;101855.56;4982833;28;20038;-62
2023/05/17 00:39:30;;;;;;;5.20;1.98;;;;;;;9.05;84.28;101859.03;4980239;28;20038;-61
2023/05/17 00:41:56;;;;;;;7.82;2.38;;;;;;;9.07;84.64;101860.78;4978558;28;20404;-62
2023/05/17 00:44:21;;;;;;;6.97;2.65;;;;;;;9.11;84.78;101853.94;4979836;28;20125;-62
2023/05/17 00:46:49;;;;;;;7.88;2.95;;;;;;;9.11;84.68;101849.66;4981588;28;20161;-61
2023/05/17 00:49:14;;;;;;;5.00;2.30;;;;;;;9.13;84.60;101857.41;4980344;28;20093;-61
2023/05/17 00:51:40;;;;;;;5.82;2.13;;;;;;;9.17;85.12;101854.03;4984460;28;20053;-62
2023/05/17 00:54:05;;;;;;;6.30;2.63;;;;;;;9.14;84.97;101854.84;4980897;28;20062;-61
2023/05/17 00:56:31;;;;;;;6.15;2.45;;;;;;;9.13;85.02;101862.59;4974901;28;20765;-61
2023/05/17 00:58:57;;;;;;;9.80;3.72;;;;;;;9.13;85.09;101863.44;4981177;28;20030;-61
2023/05/17 01:01:25;;;;;;;9.88;2.60;;;;;;;9.16;85.63;101859.19;4977573;28;20129;-61
2023/05/17 01:03:50;;;;;;;7.28;2.45;;;;;;;9.18;85.10;101860.94;4979065;28;20046;-61
2023/05/17 01:06:16;;;;;;;6.35;2.65;;;;;;;9.21;85.04;101867.84;4980262;28;20042;-61
2023/05/17 01:08:43;;;;;;;8.02;3.00;;;;;;;9.23;85.42;101867.00;4980170;28;20057;-62
2023/05/17 01:11:36;;;;;;;10.40;3.28;;;;;;;9.26;85.08;101871.38;4979216;28;20088;-62
2023/05/17 01:14:23;;;;;;;9.23;3.53;;;;;;;9.29;84.62;101869.69;4979560;28;20027;-61
2023/05/17 01:16:52;;;;;;;8.63;3.03;;;;;;;9.29;83.78;101869.69;4981339;28;20181;-61
2023/05/17 01:19:52;;;;;;;7.45;2.83;;;;;;;9.28;83.99;101875.72;4981962;28;20038;-62
2023/05/17 01:22:52;;;;;;;8.75;3.35;;;;;;;9.33;84.61;101871.47;4979935;28;20311;-61
2023/05/17 01:25:47;;;;;;;7.30;3.33;;;;;;;9.35;84.49;101872.34;4978417;28;20124;-61
2023/05/17 01:28:14;;;;;;;8.20;3.22;;;;;;;9.34;84.21;101869.75;4979919;28;20078;-61
2023/05/17 01:30:41;;;;;;;8.82;3.35;;;;;;;9.33;83.95;101873.19;4981638;28;20054;-61
2023/05/17 01:33:07;;;;;;;6.53;3.03;;;;;;;9.30;84.35;101875.72;4978504;28;20041;-61
2023/05/17 01:35:33;;;;;;;8.98;3.15;;;;;;;9.29;84.93;101874.84;4986394;28;20145;-61
2023/05/17 01:37:58;;;;;;;7.40;3.08;;;;;;;9.30;85.37;101886.91;4983859;28;20036;-61
2023/05/17 01:40:24;;;;;;;10.63;4.25;;;;;;;9.31;84.56;101887.78;4977255;28;20085;-62
2023/05/17 01:42:56;;;;;;;8.77;3.47;;;;;;;9.29;85.22;101890.31;4978629;28;20467;-61
2023/05/17 01:45:29;;;;;;;5.35;2.60;;;;;;;9.28;85.15;101886.03;4980052;28;20038;-61
2023/05/17 01:48:08;;;;;;;8.35;3.15;;;;;;;9.26;84.74;101889.44;4981398;28;20031;-61
2023/05/17 01:50:35;;;;;;;6.22;2.95;;;;;;;9.23;85.09;101891.97;4978939;28;20038;-61
2023/05/17 01:53:03;;;;;;;11.00;3.28;;;;;;;9.16;85.95;101892.72;4979814;28;20038;-61
2023/05/17 01:55:56;;;;;;;7.55;2.60;;;;;;;9.06;86.20;101894.28;4975761;28;20034;-61
2023/05/17 01:58:24;;;;;;;5.22;2.72;;;;;;;8.99;86.33;101906.19;4978987;28;20116;-62
2023/05/17 02:00:54;;;;;;;7.78;3.63;;;;;;;8.94;87.41;101910.41;4984079;28;20419;-61
2023/05/17 02:03:20;;;;;;;8.40;3.10;;;;;;;8.96;87.49;101913.88;4982974;28;20035;-61
2023/05/17 02:05:45;;;;;;;10.70;3.88;;;;;;;9.04;87.62;101914.88;4982198;28;20038;-61
2023/05/17 02:08:12;;;;;;;11.75;4.00;;;;;;;9.13;87.03;101914.16;4985383;28;20026;-61
2023/05/17 02:10:37;;;;;;;13.98;4.05;;;;;;;9.28;86.20;101918.69;4981752;28;20036;-61
2023/05/17 02:13:03;;;;;;;11.02;3.90;;;;;;;9.38;85.32;101911.09;4984699;28;20585;-61
2023/05/17 02:15:28;;;;;;;13.07;4.30;;;;;;;9.46;84.83;101909.53;4986449;28;20049;-62
2023/05/17 02:17:53;;;;;;;10.88;3.97;;;;;;;9.51;83.84;101905.28;4982800;28;20065;-61
2023/05/17 02:20:19;;;;;;;12.38;4.13;;;;;;;9.51;84.42;101907.00;4982529;28;20057;-61
2023/05/17 02:22:45;;;;;;;10.40;3.45;;;;;;;9.49;84.32;101899.25;4989094;28;20187;-61
2023/05/17 02:25:10;;;;;;;13.57;3.95;;;;;;;9.50;84.64;101905.25;4980787;28;20030;-61
2023/05/17 02:27:36;;;;;;;14.70;4.30;;;;;;;9.48;83.52;101904.38;4982174;28;20048;-61
2023/05/17 02:30:03;;;;;;;13.10;3.88;;;;;;;9.45;84.48;101906.91;4981191;28;20042;-61
2023/05/17 02:32:29;;;;;;;9.25;3.78;;;;;;;9.40;84.25;101901.69;4981212;28;20046;-62
2023/05/17 02:34:55;;;;;;;9.38;3.97;;;;;;;9.38;84.73;101915.38;4986239;28;20030;-61
2023/05/17 02:37:20;;;;;;;15.20;4.22;;;;;;;9.36;85.21;101911.94;4979942;28;20065;-61
2023/05/17 02:39:46;;;;;;;11.45;4.38;;;;;;;9.32;84.37;101916.16;4982783;28;20046;-61
2023/05/17 02:42:12;;;;;;;9.30;4.75;;;;;;;9.32;85.09;101913.59;4979466;28;20388;-62
2023/05/17 02:44:37;;;;;;;16.42;5.13;;;;;;;9.30;85.45;101912.72;4981270;28;20038;-62
2023/05/17 02:47:02;;;;;;;8.95;4.25;;;;;;;9.26;85.82;101922.97;4981603;28;20034;-62
2023/05/17 02:49:28;;;;;;;8.98;4.93;;;;;;;9.22;86.21;101922.06;4982566;28;20043;-62
2023/05/17 02:51:53;;;;;;;13.00;5.28;;;;;;;9.22;85.87;101923.75;4980893;28;20321;-62
2023/05/17 02:54:19;;;;;;;12.73;4.82;;;;;;;9.21;87.04;101929.75;4997098;28;20038;-62
2023/05/17 02:56:44;;;;;;;11.82;4.57;;;;;;;9.20;86.26;101928.03;4977321;28;20038;-62
2023/05/17 02:59:10;;;;;;;8.77;5.07;;;;;;;9.16;86.88;101926.25;4984161;28;20033;-62
2023/05/17 03:01:35;;;;;;;8.88;4.78;;;;;;;9.12;87.28;101928.78;4978372;28;20101;-62
2023/05/17 03:04:01;;;;;;;12.63;4.95;;;;;;;9.09;87.78;101925.28;4974825;28;20046;-62
2023/05/17 03:06:26;;;;;;;6.68;3.92;;;;;;;9.03;87.70;101925.16;4981443;28;20081;-62
2023/05/17 03:08:51;;;;;;;9.90;4.20;;;;;;;8.94;88.51;101925.88;4980695;28;20041;-62
2023/05/17 03:11:17;;;;;;;8.98;4.47;;;;;;;8.85;87.83;101932.59;4977385;28;21231;-62
2023/05/17 03:13:42;;;;;;;12.68;4.50;;;;;;;8.75;89.40;101939.31;4975287;28;20141;-62
2023/05/17 03:16:08;;;;;;;10.10;3.75;;;;;;;8.67;89.05;101930.56;4980629;28;20221;-62
2023/05/17 03:18:34;;;;;;;8.30;3.88;;;;;;;8.63;90.01;101930.50;4978739;28;20039;-62
2023/05/17 03:20:59;;;;;;;9.52;4.10;;;;;;;8.56;90.27;101930.38;4988244;28;20046;-62
2023/05/17 03:23:25;;;;;;;12.23;4.80;;;;;;;8.55;90.17;101938.06;4983820;28;20042;-62
2023/05/17 03:25:50;;;;;;;12.18;5.22;;;;;;;8.51;91.21;101944.91;4983667;28;20072;-61
2023/05/17 03:28:16;;;;;;;12.32;5.35;;;;;;;8.49;90.93;101940.53;4983372;28;20538;-62
2023/05/17 03:30:41;;;;;;;16.02;5.13;;;;;;;8.47;91.22;101940.50;4982482;28;20046;-62
2023/05/17 03:33:06;;;;;;;11.20;4.32;;;;;;;8.46;91.09;101941.34;4976497;28;20128;-62
2023/05/17 03:35:32;;;;;;;12.88;5.85;;;;;;;8.48;91.50;101941.38;4983420;28;20062;-62
2023/05/17 03:37:57;;;;;;;15.43;5.07;;;;;;;8.46;91.68;101935.31;4986583;28;20062;-62
2023/05/17 03:40:23;;;;;;;17.15;5.40;;;;;;;8.44;91.87;101953.34;4983138;28;20042;-62
2023/05/17 03:42:48;;;;;;;11.02;5.00;;;;;;;8.41;91.66;101950.69;4981516;28;20042;-62
2023/05/17 03:45:15;;;;;;;16.35;5.45;;;;;;;8.39;92.34;101959.25;4978921;28;20465;-62
2023/05/17 03:47:41;;;;;;;11.27;5.53;;;;;;;8.38;92.42;101952.34;4975555;28;20681;-62
2023/05/17 03:50:08;;;;;;;15.07;4.78;;;;;;;8.35;92.53;101958.31;4984626;28;20083;-65
2023/05/17 03:52:34;;;;;;;10.88;5.90;;;;;;;8.32;92.00;101953.09;4983686;28;20038;-62
2023/05/17 03:54:59;;;;;;;11.25;4.82;;;;;;;8.29;92.70;101958.19;4983140;28;20038;-62
2023/05/17 03:57:25;;;;;;;12.38;5.20;;;;;;;8.29;92.95;101965.03;4983380;28;20045;-62
2023/05/17 03:59:50;;;;;;;13.18;4.88;;;;;;;8.27;92.68;101965.03;4983668;28;20747;-62
2023/05/17 04:02:16;;;;;;;9.82;4.55;;;;;;;8.26;92.86;101967.56;4979862;28;20030;-62
2023/05/17 04:04:48;;;;;;;15.13;5.72;;;;;;;8.23;92.55;101968.38;4979975;28;20110;-62
2023/05/17 04:07:13;;;;;;;14.13;5.43;;;;;;;8.22;92.25;101976.94;4984237;28;20138;-62
2023/05/17 04:09:38;;;;;;;12.70;5.50;;;;;;;8.22;92.35;101970.94;4980328;28;20042;-62
2023/05/17 04:12:04;;;;;;;10.85;6.18;;;;;;;8.22;92.65;101974.34;4979529;28;20038;-62
2023/05/17 04:14:30;;;;;;;16.13;5.35;;;;;;;8.24;92.07;101976.97;5014461;28;20403;-62
2023/05/17 04:16:55;;;;;;;16.80;5.70;;;;;;;8.28;92.52;101978.75;4982893;28;20108;-62
2023/05/17 04:19:20;;;;;;;16.05;5.40;;;;;;;8.34;92.63;101981.44;4977768;28;20062;-62
2023/05/17 04:21:46;;;;;;;11.88;5.63;;;;;;;8.42;92.46;101985.94;4984403;28;20527;-62
2023/05/17 04:24:11;;;;;;;10.35;5.43;;;;;;;8.50;91.85;101989.53;4983027;28;20064;-62
2023/05/17 04:26:37;;;;;;;10.65;5.30;;;;;;;8.57;91.65;101990.53;4985082;28;20035;-62
2023/05/17 04:29:02;;;;;;;10.90;5.88;;;;;;;8.61;91.51;101989.72;4982526;28;20595;-62
2023/05/17 04:31:27;;;;;;;13.13;5.60;;;;;;;8.71;91.50;101983.03;4981491;28;20038;-62
2023/05/17 04:33:53;;;;;;;15.02;6.50;;;;;;;8.77;90.95;101980.56;4972320;28;20039;-62
2023/05/17 04:36:18;;;;;;;15.85;5.90;;;;;;;8.83;91.17;101988.44;4979311;28;20038;-62
2023/05/17 04:38:44;;;;;;;22.60;7.05;;;;;;;8.87;89.81;101990.22;4977452;28;20050;-62
2023/05/17 04:41:10;;;;;;;15.50;5.95;;;;;;;8.95;90.91;101996.38;4982078;28;20030;-62
2023/05/17 04:43:35;;;;;;;14.48;6.28;;;;;;;9.02;90.01;101993.94;4976610;28;20035;-62
2023/05/17 04:46:01;;;;;;;15.07;5.95;;;;;;;9.08;89.92;102001.78;4979799;28;20043;-62
2023/05/17 04:48:26;;;;;;;15.40;6.10;;;;;;;9.16;89.96;102007.06;4975189;28;20044;-62
2023/05/17 04:50:54;;;;;;;17.55;6.95;;;;;;;9.22;89.26;102011.47;4977383;28;20039;-62
2023/05/17 04:53:20;;;;;;;13.05;5.97;;;;;;;9.26;88.95;102015.84;4984601;28;20030;-62
2023/05/17 04:55:47;;;;;;;17.75;6.65;;;;;;;9.21;89.02;102015.75;4983379;28;20046;-61
2023/05/17 04:58:12;;;;;;;16.80;7.00;;;;;;;9.22;89.08;102017.50;4982502;28;20396;-62
2023/05/17 05:00:37;;;;;;;15.15;7.10;;;;;;;9.18;88.63;102017.41;4978836;28;20050;-62
2023/05/17 05:03:03;;;;;;;11.68;5.95;;;;;;;9.19;89.28;102019.16;4986481;28;20050;-62
2023/05/17 05:05:30;;;;;;;16.63;6.53;;;;;;;9.21;89.45;102026.06;4982653;28;20054;-62
2023/05/17 05:07:56;;;;;;;18.58;6.13;;;;;;;9.28;89.32;102024.47;4983627;28;20034;-62
2023/05/17 05:10:22;;;;;;;14.05;7.30;;;;;;;9.34;89.01;102025.44;4981908;28;20030;-62
2023/05/17 05:12:47;;;;;;;17.38;7.05;;;;;;;9.36;88.95;102028.03;4982038;28;20053;-62
2023/05/17 05:15:12;;;;;;;17.83;7.10;;;;;;;9.35;89.49;102029.75;4987377;28;20057;-62
2023/05/17 05:17:38;;;;;;;17.25;7.22;;;;;;;9.38;89.69;102034.97;4980624;28;20764;-62
2023/05/17 05:20:03;;;;;;;13.40;6.60;;;;;;;9.44;89.62;102022.16;4984634;28;20113;-62
2023/05/17 05:22:29;;;;;;;16.30;7.20;;;;;;;9.56;88.94;102032.69;4977818;28;20105;-62
2023/05/17 05:24:55;;;;;;;24.70;8.35;;;;;;;9.68;89.17;102035.50;4985015;28;20038;-62
2023/05/17 05:27:20;;;;;;;25.20;8.10;;;;;;;9.80;88.54;102036.50;4982209;28;20069;-63
2023/05/17 05:29:46;;;;;;;18.35;7.90;;;;;;;9.96;88.50;102033.31;4980111;28;20533;-63
2023/05/17 05:32:11;;;;;;;17.48;7.95;;;;;;;10.13;87.99;102035.28;4983009;28;20058;-62
2023/05/17 05:34:37;;;;;;;20.13;7.40;;;;;;;10.20;86.72;102031.97;4977287;28;20036;-63
2023/05/17 05:37:03;;;;;;;17.45;7.28;;;;;;;10.36;86.13;102040.75;4981265;28;20091;-62
2023/05/17 05:39:28;;;;;;;20.73;7.90;;;;;;;10.43;85.55;102033.94;4979778;28;20427;-62
2023/05/17 05:41:54;;;;;;;23.55;8.90;;;;;;;10.43;84.92;102039.13;4980023;28;20141;-62
2023/05/17 05:44:19;;;;;;;18.67;8.82;;;;;;;10.41;85.40;102048.59;4980967;28;20596;-62
2023/05/17 05:46:45;;;;;;;21.63;9.98;;;;;;;10.37;85.31;102042.50;4981383;28;20066;-63
2023/05/17 05:49:10;;;;;;;18.98;9.15;;;;;;;10.40;85.74;102036.50;4974328;28;20038;-63
2023/05/17 05:51:35;;;;;;;19.50;9.18;;;;;;;10.47;85.21;102039.19;4982967;28;20121;-63
2023/05/17 05:54:01;;;;;;;19.08;9.52;;;;;;;10.54;85.18;102040.97;4981258;28;20035;-62
2023/05/17 05:56:26;;;;;;;23.45;10.15;;;;;;;10.57;85.19;102040.16;4981540;28;21170;-63
2023/05/17 05:58:54;;;;;;;22.02;10.52;;;;;;;10.61;85.37;102047.09;4981716;28;20037;-62
2023/05/17 06:01:20;;;;;;;19.17;9.60;;;;;;;10.51;84.43;102048.69;4981689;28;20486;-63
2023/05/17 06:03:45;;;;;;;21.02;9.15;;;;;;;10.35;85.71;102045.91;4979908;28;20088;-63
2023/05/17 06:06:11;;;;;;;21.25;9.77;;;;;;;10.34;86.27;102051.91;5013793;28;20058;-62
2023/05/17 06:08:36;;;;;;;23.35;9.70;;;;;;;10.26;86.40;102050.97;4978635;28;20092;-62
2023/05/17 06:11:02;;;;;;;23.27;10.38;;;;;;;10.18;87.11;102056.88;4982531;28;20038;-63
2023/05/17 06:13:27;;;;;;;29.23;11.13;;;;;;;10.07;87.16;102058.47;4985301;28;20042;-62
2023/05/17 06:15:53;;;;;;;28.38;11.32;;;;;;;10.03;87.76;102072.16;4987186;28;20069;-62
2023/05/17 06:18:18;;;;;;;23.02;10.23;;;;;;;9.95;88.27;102076.34;4982482;28;20121;-63
2023/05/17 06:20:45;;;;;;;24.10;11.35;;;;;;;9.89;89.61;102076.25;4978330;28;20104;-63
2023/05/17 06:23:10;;;;;;;24.77;10.88;;;;;;;9.85;90.03;102081.38;4976794;28;20030;-62
2023/05/17 06:25:35;;;;;;;26.55;12.43;;;;;;;9.85;90.39;102087.38;4973050;28;20035;-62
2023/05/17 06:28:02;;;;;;;28.25;10.93;;;;;;;9.98;91.45;102088.44;4977609;28;20045;-63
2023/05/17 06:30:28;;;;;;;26.75;12.30;;;;;;;9.98;90.12;102094.47;4978337;28;20043;-62
2023/05/17 06:32:54;;;;;;;22.98;11.27;;;;;;;9.98;90.48;102089.31;4980148;28;20070;-63
2023/05/17 06:35:19;;;;;;;28.58;12.48;;;;;;;9.98;91.06;102094.47;4979799;28;20552;-62
2023/05/17 06:37:45;;;;;;;26.83;12.38;;;;;;;10.04;91.40;102096.28;4982341;28;20038;-62
2023/05/17 06:40:11;;;;;;;33.08;15.73;;;;;;;10.08;90.86;102098.97;4979318;28;20049;-63
2023/05/17 06:42:36;;;;;;;38.20;19.77;;;;;;;10.13;90.21;102096.44;4977043;28;20117;-62
2023/05/17 06:45:02;;;;;;;38.47;18.55;;;;;;;10.24;89.07;102093.16;4975715;28;20566;-63
2023/05/17 06:47:28;;;;;;;39.53;19.23;;;;;;;10.53;88.52;102097.84;4981706;28;20514;-62
2023/05/17 06:49:54;;;;;;;49.08;20.05;;;;;;;10.84;86.55;102088.75;4977598;28;20131;-63
2023/05/17 06:52:19;;;;;;;46.75;23.63;;;;;;;11.13;84.97;102084.75;4982867;28;20113;-63
2023/05/17 06:54:45;;;;;;;48.80;22.27;;;;;;;11.29;84.39;102076.28;4981092;28;20090;-63
2023/05/17 06:57:10;;;;;;;41.13;21.80;;;;;;;11.47;82.42;102075.63;4981359;28;20039;-63
2023/05/17 06:59:36;;;;;;;48.38;23.50;;;;;;;11.54;80.65;102069.66;4978234;28;20443;-63
2023/05/17 07:02:02;;;;;;;47.60;23.08;;;;;;;11.62;79.24;102062.81;4978072;28;20049;-63
2023/05/17 07:04:27;;;;;;;51.17;24.35;;;;;;;11.73;79.17;102069.81;4973391;28;20061;-63
2023/05/17 07:06:53;;;;;;;42.55;22.90;;;;;;;11.90;79.34;102088.94;4979924;28;20932;-63
2023/05/17 07:09:20;;;;;;;40.88;21.88;;;;;;;12.12;78.29;102074.41;4980221;28;20044;-63
2023/05/17 07:11:45;;;;;;;36.08;20.52;;;;;;;12.42;77.35;102064.19;4977960;28;20435;-63
2023/05/17 07:14:11;;;;;;;31.40;18.33;;;;;;;12.61;73.87;102026.25;4982849;28;20038;-65
2023/05/17 07:16:36;;;;;;;36.50;17.17;;;;;;;12.76;72.86;102036.66;4977797;28;20030;-65
2023/05/17 07:19:02;;;;;;;27.08;15.10;;;;;;;12.47;70.69;102014.94;4980041;28;20034;-65
2023/05/17 07:21:28;;;;;;;28.52;16.05;;;;;;;12.51;70.94;102040.03;4976222;28;20149;-65
2023/05/17 07:23:53;;;;;;;29.65;12.70;;;;;;;12.54;69.43;102015.84;4976209;28;20045;-65
2023/05/17 07:26:19;;;;;;;26.33;12.30;;;;;;;12.54;67.95;101995.97;4981271;28;20041;-64
2023/05/17 07:28:45;;;;;;;22.60;11.98;;;;;;;12.44;67.70;101995.06;4979086;28;20097;-65
2023/05/17 07:31:10;;;;;;;20.92;10.73;;;;;;;12.73;67.40;101999.47;4976989;28;20401;-64
2023/05/17 07:33:37;;;;;;;26.00;12.07;;;;;;;12.71;66.12;101976.09;4980007;28;20121;-65
2023/05/17 07:36:03;;;;;;;27.33;12.15;;;;;;;12.66;67.21;102001.19;4974281;28;20555;-64
2023/05/17 07:38:28;;;;;;;23.42;11.05;;;;;;;12.87;65.45;101977.00;4980894;28;20088;-65
2023/05/17 07:40:53;;;;;;;19.73;7.90;;;;;;;12.63;62.88;101920.75;4978062;28;20039;-64
2023/05/17 07:43:19;;;;;;;21.92;8.40;;;;;;;12.72;62.70;101917.31;4975970;28;20033;-64
2023/05/17 07:45:44;;;;;;;17.77;7.40;;;;;;;12.71;62.61;101919.03;4978142;28;20137;-66
2023/05/17 07:48:10;;;;;;;19.90;7.55;;;;;;;12.66;63.72;101953.63;4978224;28;20070;-64
2023/05/17 07:50:35;;;;;;;22.10;8.13;;;;;;;12.83;63.55;101957.09;4983675;28;20623;-64
2023/05/17 07:53:01;;;;;;;18.90;7.45;;;;;;;12.93;61.65;101919.94;4981474;28;20669;-65
2023/05/17 07:55:26;;;;;;;14.13;6.65;;;;;;;13.14;61.20;101916.50;4979815;28;20284;-64
2023/05/17 07:57:52;;;;;;;15.73;6.32;;;;;;;13.37;59.92;101886.16;4977718;28;20092;-66
2023/05/17 08:00:18;;;;;;;20.67;7.68;;;;;;;13.52;58.81;101893.94;4983126;28;20033;-66
2023/05/17 08:02:44;;;;;;;15.77;6.63;;;;;;;13.47;59.10;101895.69;4970040;28;20034;-65
2023/05/17 08:05:09;;;;;;;18.13;6.20;;;;;;;13.57;60.05;101933.75;4980039;28;20380;-65
2023/05/17 08:07:34;;;;;;;19.73;6.70;;;;;;;13.61;58.54;101901.69;4979454;28;20429;-65
2023/05/17 08:10:00;;;;;;;17.23;6.50;;;;;;;13.50;59.08;101909.50;4987096;28;20462;-66
2023/05/17 08:12:25;;;;;;;17.60;6.07;;;;;;;13.21;59.24;101924.25;4981338;28;20066;-65
2023/05/17 08:14:51;;;;;;;15.00;5.32;;;;;;;13.43;59.90;101935.50;4986554;28;20070;-64
2023/05/17 08:17:16;;;;;;;20.60;5.97;;;;;;;13.63;57.75;101889.56;4981645;28;20121;-64
2023/05/17 08:19:42;;;;;;;15.75;5.22;;;;;;;13.55;56.67;101873.13;4974714;28;20034;-64
2023/05/17 08:22:08;;;;;;;13.98;4.90;;;;;;;13.54;57.60;101889.59;4979492;28;20046;-66
2023/05/17 08:24:33;;;;;;;14.90;4.75;;;;;;;13.59;56.81;101877.47;4981492;28;20125;-64
2023/05/17 08:26:59;;;;;;;13.02;4.20;;;;;;;13.49;57.79;101907.78;4981989;28;20553;-66
2023/05/17 08:29:24;;;;;;;15.80;5.22;;;;;;;13.74;57.28;101899.94;4980040;28;20061;-65
2023/05/17 08:31:51;;;;;;;16.10;3.92;;;;;;;14.02;56.50;101892.03;4979694;28;20541;-64
2023/05/17 08:34:16;;;;;;;12.45;4.13;;;;;;;14.11;53.10;101826.09;4985119;28;20031;-65
2023/05/17 08:36:43;;;;;;;11.55;3.58;;;;;;;14.13;53.00;101832.16;4984707;28;20162;-64
2023/05/17 08:39:08;;;;;;;14.60;4.20;;;;;;;13.77;54.47;101854.00;4977110;28;20130;-63
2023/05/17 08:41:34;;;;;;;10.68;3.42;;;;;;;13.81;53.08;101828.88;4982142;28;20030;-65
2023/05/17 08:44:02;;;;;;;19.00;4.28;;;;;;;14.11;53.59;101850.38;5017891;28;20372;-64
2023/05/17 08:46:30;;;;;;;11.18;3.10;;;;;;;14.21;52.42;101833.00;5012810;28;20737;-66
2023/05/17 08:48:58;;;;;;;10.00;3.10;;;;;;;13.93;52.03;101821.88;4982069;28;20038;-64
2023/05/17 08:51:25;;;;;;;13.35;3.22;;;;;;;13.45;52.20;101835.06;4974135;28;20701;-65
2023/05/17 08:53:50;;;;;;;8.63;2.92;;;;;;;13.51;51.87;101835.91;4981943;28;20110;-64
2023/05/17 08:56:18;;;;;;;8.80;2.78;;;;;;;13.56;52.29;101847.16;4983719;28;20061;-64
2023/05/17 08:58:46;;;;;;;16.08;3.00;;;;;;;13.73;51.83;101843.63;4982461;28;20499;-63
2023/05/17 09:01:12;;;;;;;12.82;2.92;;;;;;;13.91;51.20;101843.56;4980726;28;21142;-64
2023/05/17 09:03:40;;;;;;;10.38;2.13;;;;;;;13.83;50.43;101817.59;4981837;28;20034;-64
2023/05/17 09:06:08;;;;;;;10.63;2.55;;;;;;;14.19;51.17;101821.72;4979774;28;20562;-64
2023/05/17 09:08:34;;;;;;;8.57;2.15;;;;;;;14.26;49.08;101789.59;4980656;28;20042;-64
2023/05/17 09:10:59;;;;;;;8.05;1.60;;;;;;;14.31;47.37;101779.16;4980827;28;20034;-65
2023/05/17 09:13:25;;;;;;;9.00;2.22;;;;;;;14.52;46.18;101753.88;4978768;28;20528;-64
2023/05/17 09:15:52;;;;;;;11.80;2.63;;;;;;;14.65;47.65;101776.31;4984418;28;20938;-64
2023/05/17 09:18:18;;;;;;;9.40;2.38;;;;;;;14.89;46.89;101774.34;4982919;28;20034;-65
2023/05/17 09:20:50;;;;;;;7.45;2.30;;;;;;;14.94;45.10;101729.16;4973136;28;20140;-63
2023/05/17 09:23:19;;;;;;;9.98;2.10;;;;;;;14.86;45.35;101735.34;4979907;28;20034;-64
2023/05/17 09:25:48;;;;;;;9.73;1.90;;;;;;;15.08;46.25;101776.75;4976756;28;20081;-66
2023/05/17 09:28:14;;;;;;;8.65;2.55;;;;;;;14.86;45.89;101770.03;4982773;28;20043;-64
2023/05/17 09:30:40;;;;;;;7.05;2.40;;;;;;;14.83;46.60;101790.03;5011410;28;20038;-63
2023/05/17 09:33:10;;;;;;;10.02;2.30;;;;;;;14.79;45.78;101780.53;4982227;28;20070;-64
2023/05/17 09:35:37;;;;;;;7.90;2.40;;;;;;;14.53;45.54;101771.22;4978144;28;20042;-64
2023/05/17 09:38:14;;;;;;;11.40;2.45;;;;;;;14.80;46.40;101783.13;4977422;28;20030;-64
2023/05/17 09:40:45;;;;;;;12.15;2.70;;;;;;;15.00;44.54;101754.28;4978486;28;20443;-63
2023/05/17 09:43:11;;;;;;;6.55;2.00;;;;;;;15.05;44.71;101755.06;4988358;28;20121;-64
2023/05/17 09:45:37;;;;;;;9.15;2.13;;;;;;;15.36;45.66;101776.44;4981170;28;20792;-63
2023/05/17 09:48:14;;;;;;;7.35;2.15;;;;;;;15.44;43.16;101744.19;4983390;28;20046;-65
2023/05/17 09:50:48;;;;;;;7.85;2.13;;;;;;;15.33;43.27;101735.66;4976154;28;20050;-65
2023/05/17 09:53:39;;;;;;;9.43;2.22;;;;;;;15.81;44.15;101754.16;4980004;28;20049;-65
2023/05/17 09:56:05;;;;;;;6.80;1.95;;;;;;;15.83;43.68;101758.47;4980399;28;20026;-63
2023/05/17 09:58:32;;;;;;;10.48;2.72;;;;;;;15.84;44.96;101775.84;4973215;28;20058;-64
2023/05/17 10:01:00;;;;;;;14.82;2.45;;;;;;;15.50;44.25;101759.75;4978825;28;20408;-64
2023/05/17 10:03:30;;;;;;;12.68;2.47;;;;;;;15.36;44.80;101774.69;4980240;28;20065;-62
2023/05/17 10:05:57;;;;;;;10.80;2.88;;;;;;;15.09;45.38;101803.66;4974814;28;20034;-63
2023/05/17 10:08:26;;;;;;;7.85;2.20;;;;;;;15.17;45.22;101796.63;4978626;28;20034;-65
2023/05/17 10:10:59;;;;;;;11.20;2.60;;;;;;;15.16;44.70;101780.16;4976746;28;20026;-64
2023/05/17 10:13:33;;;;;;;8.23;2.42;;;;;;;15.41;44.52;101772.88;4981020;28;20767;-63
2023/05/17 10:15:59;;;;;;;7.37;2.40;;;;;;;15.54;44.23;101756.25;4978582;28;20116;-63
2023/05/17 10:18:25;;;;;;;11.95;2.88;;;;;;;15.52;44.20;101757.97;4979848;28;20615;-65
2023/05/17 10:20:51;;;;;;;11.77;2.85;;;;;;;15.27;42.82;101738.34;4983818;28;20048;-63
2023/05/17 10:23:17;;;;;;;10.23;2.38;;;;;;;15.49;42.77;101739.81;4984877;28;20029;-64
2023/05/17 10:25:43;;;;;;;9.32;2.83;;;;;;;15.56;42.84;101727.53;4979607;28;20030;-64
2023/05/17 10:28:11;;;;;;;7.43;2.28;;;;;;;15.65;42.84;101743.94;4977479;28;20030;-64
2023/05/17 10:30:37;;;;;;;11.18;2.33;;;;;;;15.46;42.74;101741.59;4977435;28;20042;-63
2023/05/17 10:33:03;;;;;;;12.38;3.05;;;;;;;15.05;42.51;101742.06;4977863;28;20034;-64
2023/05/17 10:35:31;;;;;;;10.52;2.70;;;;;;;15.07;43.28;101751.59;4979717;28;20044;-65
2023/05/17 10:37:56;;;;;;;11.63;3.13;;;;;;;15.30;42.09;101743.50;4978955;28;20157;-64
2023/05/17 10:40:23;;;;;;;8.77;2.50;;;;;;;15.41;41.35;101727.72;4977342;28;20058;-64
2023/05/17 10:42:51;;;;;;;8.27;2.45;;;;;;;15.27;43.05;101729.66;4978794;28;20399;-64
2023/05/17 10:45:20;;;;;;;11.32;2.67;;;;;;;15.74;43.40;101748.16;4975974;28;20042;-64
2023/05/17 10:47:49;;;;;;;4.75;1.98;;;;;;;15.81;41.63;101720.28;4975622;28;20287;-64
2023/05/17 10:50:24;;;;;;;4.20;1.88;;;;;;;15.57;43.25;101753.59;4977415;28;20833;-64
2023/05/17 10:52:50;;;;;;;8.68;2.38;;;;;;;15.60;40.39;101690.13;4971043;28;20026;-64
2023/05/17 10:55:27;;;;;;;8.57;2.75;;;;;;;15.87;39.98;101687.16;4977113;28;20038;-63
2023/05/17 10:58:07;;;;;;;11.90;2.58;;;;;;;16.19;41.21;101700.53;4983930;28;20034;-64
2023/05/17 11:00:38;;;;;;;7.53;2.38;;;;;;;16.59;40.49;101699.88;4972889;28;20045;-64
2023/05/17 11:03:15;;;;;;;7.75;2.20;;;;;;;16.81;39.19;101675.94;4966695;28;20089;-63
2023/05/17 11:05:44;;;;;;;7.15;1.98;;;;;;;16.77;39.26;101686.50;4976376;28;20511;-63
2023/05/17 11:08:14;;;;;;;6.60;2.33;;;;;;;16.88;38.75;101671.47;4982006;28;20030;-64
2023/05/17 11:11:16;;;;;;;14.38;3.13;;;;;;;16.60;39.71;101691.13;4971544;28;20030;-64
2023/05/17 11:13:54;;;;;;;10.35;2.22;;;;;;;16.30;39.03;101690.78;4961235;28;20137;-64
2023/05/17 11:16:22;;;;;;;10.40;2.45;;;;;;;16.63;39.85;101691.94;4959239;28;20057;-64
2023/05/17 11:18:52;;;;;;;11.23;2.22;;;;;;;16.61;39.64;101693.72;4975181;28;20050;-64
2023/05/17 11:21:20;;;;;;;9.88;2.47;;;;;;;16.50;40.35;101682.63;4964269;28;20050;-64